createdAt,value
2018-05-25T00:00:15.420Z,21.80
2018-05-25T00:00:48.202Z,21.80
2018-05-25T00:01:20.232Z,21.80
2018-05-25T00:01:53.028Z,21.80
2018-05-25T00:02:25.055Z,21.80
2018-05-25T00:02:57.843Z,21.80
2018-05-25T00:03:29.863Z,21.80
2018-05-25T00:04:01.935Z,21.80
2018-05-25T00:04:34.733Z,21.80
2018-05-25T00:05:06.759Z,21.80
2018-05-25T00:05:39.547Z,21.80
2018-05-25T00:06:11.581Z,21.80
2018-05-25T00:06:44.354Z,21.80
2018-05-25T00:07:16.394Z,21.80
2018-05-25T00:07:49.193Z,21.80
2018-05-25T00:08:21.222Z,21.80
2018-05-25T00:08:54.028Z,21.80
2018-05-25T00:09:26.052Z,21.80
2018-05-25T00:09:58.093Z,21.80
2018-05-25T00:10:30.912Z,21.80
2018-05-25T00:11:02.928Z,21.80
2018-05-25T00:11:34.956Z,21.80
2018-05-25T00:12:07.750Z,21.80
2018-05-25T00:12:39.780Z,21.80
2018-05-25T00:13:12.582Z,21.80
2018-05-25T00:13:44.606Z,21.80
2018-05-25T00:14:16.650Z,21.80
2018-05-25T00:14:49.430Z,21.80
2018-05-25T00:15:21.472Z,21.80
2018-05-25T00:15:53.476Z,21.80
2018-05-25T00:16:25.497Z,21.80
2018-05-25T00:16:57.530Z,21.80
2018-05-25T00:17:30.315Z,21.80
2018-05-25T00:18:02.357Z,21.70
2018-05-25T00:18:34.387Z,21.80
2018-05-25T00:19:07.219Z,21.80
2018-05-25T00:19:39.233Z,21.80
2018-05-25T00:20:11.261Z,21.80
2018-05-25T00:20:43.305Z,21.80
2018-05-25T00:21:16.098Z,21.70
2018-05-25T00:21:48.132Z,21.70
2018-05-25T00:22:20.921Z,21.80
2018-05-25T00:22:52.944Z,21.80
2018-05-25T00:23:24.985Z,21.80
2018-05-25T00:23:57.042Z,21.80
2018-05-25T00:24:29.075Z,21.80
2018-05-25T00:25:01.097Z,21.80
2018-05-25T00:25:33.125Z,21.80
2018-05-25T00:26:05.144Z,21.80
2018-05-25T00:26:37.162Z,21.80
2018-05-25T00:27:09.181Z,21.80
2018-05-25T00:27:41.220Z,21.70
2018-05-25T00:28:14.011Z,21.80
2018-05-25T00:28:46.089Z,21.80
2018-05-25T00:29:18.154Z,21.80
2018-05-25T00:29:50.223Z,21.80
2018-05-25T00:30:22.287Z,21.70
2018-05-25T00:30:55.081Z,21.80
2018-05-25T00:31:27.132Z,21.80
2018-05-25T00:31:59.894Z,21.80
2018-05-25T00:32:31.911Z,21.80
2018-05-25T00:33:03.942Z,21.80
2018-05-25T00:33:36.003Z,21.80
2018-05-25T00:34:08.004Z,21.80
2018-05-25T00:34:40.028Z,21.80
2018-05-25T00:35:12.044Z,21.80
2018-05-25T00:35:44.115Z,21.80
2018-05-25T00:36:16.120Z,21.80
2018-05-25T00:36:48.171Z,21.80
2018-05-25T00:37:20.954Z,21.80
2018-05-25T00:37:52.959Z,21.80
2018-05-25T00:38:25.762Z,21.80
2018-05-25T00:38:57.779Z,21.80
2018-05-25T00:39:30.563Z,21.80
2018-05-25T00:40:02.589Z,21.80
2018-05-25T00:40:34.627Z,21.80
2018-05-25T00:41:06.680Z,21.80
2018-05-25T00:41:38.662Z,21.80
2018-05-25T00:42:10.696Z,21.80
2018-05-25T00:42:42.710Z,21.80
2018-05-25T00:43:14.753Z,21.80
2018-05-25T00:43:46.787Z,21.80
2018-05-25T00:44:18.803Z,21.80
2018-05-25T00:44:51.597Z,21.80
2018-05-25T00:45:23.634Z,21.70
2018-05-25T00:45:56.420Z,21.80
2018-05-25T00:46:28.470Z,21.70
2018-05-25T00:47:00.506Z,21.80
2018-05-25T00:47:33.299Z,21.80
2018-05-25T00:48:05.331Z,21.80
2018-05-25T00:48:37.359Z,21.80
2018-05-25T00:49:09.378Z,21.80
2018-05-25T00:49:41.418Z,21.80
2018-05-25T00:50:13.468Z,21.80
2018-05-25T00:50:45.504Z,21.80
2018-05-25T00:51:17.568Z,21.80
2018-05-25T00:51:49.572Z,21.80
2018-05-25T00:52:22.387Z,21.80
2018-05-25T00:52:54.414Z,21.80
2018-05-25T00:53:26.444Z,21.80
2018-05-25T00:53:59.271Z,21.80
2018-05-25T00:54:31.278Z,21.80
2018-05-25T00:55:03.351Z,21.80
2018-05-25T00:55:35.371Z,21.80
2018-05-25T00:56:08.157Z,21.70
2018-05-25T00:56:40.189Z,21.70
2018-05-25T00:57:12.235Z,21.80
2018-05-25T00:57:45.024Z,21.70
2018-05-25T00:58:17.838Z,21.70
2018-05-25T00:58:49.855Z,21.70
2018-05-25T00:59:21.930Z,21.80
2018-05-25T00:59:53.961Z,21.70
2018-05-25T01:00:26.027Z,21.70
2018-05-25T01:00:58.063Z,21.70
2018-05-25T01:01:30.119Z,21.70
2018-05-25T01:02:02.164Z,21.70
2018-05-25T01:02:34.198Z,21.70
2018-05-25T01:03:06.231Z,21.70
2018-05-25T01:03:38.246Z,21.70
2018-05-25T01:04:10.261Z,21.70
2018-05-25T01:04:42.325Z,21.70
2018-05-25T01:05:14.365Z,21.70
2018-05-25T01:05:46.381Z,21.70
2018-05-25T01:06:18.396Z,21.70
2018-05-25T01:06:50.435Z,21.70
2018-05-25T01:07:22.452Z,21.70
2018-05-25T01:07:55.248Z,21.70
2018-05-25T01:08:27.305Z,21.70
2018-05-25T01:08:59.310Z,21.70
2018-05-25T01:09:31.333Z,21.70
2018-05-25T01:10:03.363Z,21.70
2018-05-25T01:10:35.419Z,21.70
2018-05-25T01:11:07.437Z,21.70
2018-05-25T01:11:40.218Z,21.70
2018-05-25T01:12:12.251Z,21.70
2018-05-25T01:12:45.028Z,21.70
2018-05-25T01:13:17.065Z,21.70
2018-05-25T01:13:49.860Z,21.70
2018-05-25T01:14:21.897Z,21.70
2018-05-25T01:14:54.684Z,21.70
2018-05-25T01:15:26.745Z,21.70
2018-05-25T01:15:58.772Z,21.70
2018-05-25T01:16:31.562Z,21.70
2018-05-25T01:17:03.597Z,21.70
2018-05-25T01:17:35.619Z,21.70
2018-05-25T01:18:07.648Z,21.70
2018-05-25T01:18:39.669Z,21.70
2018-05-25T01:19:11.695Z,21.70
2018-05-25T01:19:44.486Z,21.70
2018-05-25T01:20:16.515Z,21.70
2018-05-25T01:20:48.626Z,21.70
2018-05-25T01:21:20.635Z,21.70
2018-05-25T01:21:52.651Z,21.70
2018-05-25T01:22:24.673Z,21.70
2018-05-25T01:22:56.733Z,21.70
2018-05-25T01:23:28.772Z,21.70
2018-05-25T01:24:00.812Z,21.70
2018-05-25T01:24:32.847Z,21.70
2018-05-25T01:25:04.865Z,21.70
2018-05-25T01:25:37.684Z,21.70
2018-05-25T01:26:09.708Z,21.70
2018-05-25T01:26:41.727Z,21.70
2018-05-25T01:27:14.522Z,21.70
2018-05-25T01:27:46.565Z,21.70
2018-05-25T01:28:18.603Z,21.70
2018-05-25T01:28:50.640Z,21.70
2018-05-25T01:29:22.659Z,21.70
2018-05-25T01:29:54.684Z,21.70
2018-05-25T01:30:26.698Z,21.80
2018-05-25T01:30:58.738Z,21.70
2018-05-25T01:31:30.754Z,21.80
2018-05-25T01:32:02.779Z,21.70
2018-05-25T01:32:34.805Z,21.70
2018-05-25T01:33:06.847Z,21.70
2018-05-25T01:33:38.864Z,21.70
2018-05-25T01:34:10.888Z,21.70
2018-05-25T01:34:42.919Z,21.70
2018-05-25T01:35:15.730Z,21.70
2018-05-25T01:35:47.742Z,21.70
2018-05-25T01:36:20.542Z,21.70
2018-05-25T01:36:52.591Z,21.70
2018-05-25T01:37:24.627Z,21.70
2018-05-25T01:37:56.666Z,21.70
2018-05-25T01:38:29.451Z,21.70
2018-05-25T01:39:01.492Z,21.70
2018-05-25T01:39:34.321Z,21.70
2018-05-25T01:40:06.340Z,21.70
2018-05-25T01:40:38.378Z,21.70
2018-05-25T01:41:10.443Z,21.70
2018-05-25T01:41:42.488Z,21.70
2018-05-25T01:42:14.521Z,21.70
2018-05-25T01:42:46.580Z,21.70
2018-05-25T01:43:18.601Z,21.70
2018-05-25T01:43:50.619Z,21.70
2018-05-25T01:44:22.683Z,21.70
2018-05-25T01:44:54.677Z,21.70
2018-05-25T01:45:26.705Z,21.70
2018-05-25T01:45:59.494Z,21.60
2018-05-25T01:46:31.525Z,21.60
2018-05-25T01:47:03.542Z,21.70
2018-05-25T01:47:35.584Z,21.60
2018-05-25T01:48:07.603Z,21.60
2018-05-25T01:48:39.622Z,21.60
2018-05-25T01:49:11.649Z,21.60
2018-05-25T01:49:43.688Z,21.60
2018-05-25T01:50:15.718Z,21.60
2018-05-25T01:50:47.740Z,21.60
2018-05-25T01:51:20.541Z,21.60
2018-05-25T01:51:54.135Z,21.60
2018-05-25T01:52:26.139Z,21.60
2018-05-25T01:52:58.149Z,21.60
2018-05-25T01:53:30.175Z,21.60
2018-05-25T01:54:02.238Z,21.60
2018-05-25T01:54:35.004Z,21.60
2018-05-25T01:55:07.028Z,21.60
2018-05-25T01:55:39.037Z,21.60
2018-05-25T01:56:11.097Z,21.60
2018-05-25T01:56:43.107Z,21.60
2018-05-25T01:57:15.135Z,21.60
2018-05-25T01:57:47.926Z,21.60
2018-05-25T01:58:19.947Z,21.60
2018-05-25T01:58:52.754Z,21.60
2018-05-25T01:59:24.779Z,21.60
2018-05-25T01:59:56.827Z,21.60
2018-05-25T02:00:29.609Z,21.60
2018-05-25T02:01:01.663Z,21.60
2018-05-25T02:01:33.684Z,21.60
2018-05-25T02:02:06.479Z,21.60
2018-05-25T02:02:38.508Z,21.60
2018-05-25T02:03:11.299Z,21.60
2018-05-25T02:03:43.339Z,21.60
2018-05-25T02:04:16.119Z,21.50
2018-05-25T02:04:48.143Z,21.50
2018-05-25T02:05:20.946Z,21.50
2018-05-25T02:05:52.970Z,21.50
2018-05-25T02:06:25.766Z,21.50
2018-05-25T02:06:57.788Z,21.60
2018-05-25T02:07:30.587Z,21.60
2018-05-25T02:08:02.614Z,21.60
2018-05-25T02:08:35.395Z,21.60
2018-05-25T02:09:07.438Z,21.60
2018-05-25T02:09:39.481Z,21.60
2018-05-25T02:10:12.267Z,21.60
2018-05-25T02:10:44.294Z,21.60
2018-05-25T02:11:16.384Z,21.60
2018-05-25T02:11:48.346Z,21.60
2018-05-25T02:12:20.375Z,21.60
2018-05-25T02:12:52.411Z,21.60
2018-05-25T02:13:25.195Z,21.60
2018-05-25T02:13:57.255Z,21.60
2018-05-25T02:14:29.282Z,21.60
2018-05-25T02:15:01.335Z,21.60
2018-05-25T02:15:34.119Z,21.60
2018-05-25T02:16:06.142Z,21.60
2018-05-25T02:16:38.963Z,21.60
2018-05-25T02:17:11.755Z,21.60
2018-05-25T02:17:43.923Z,21.60
2018-05-25T02:18:15.957Z,21.60
2018-05-25T02:18:47.991Z,21.60
2018-05-25T02:19:20.793Z,21.60
2018-05-25T02:19:52.844Z,21.60
2018-05-25T02:20:24.857Z,21.60
2018-05-25T02:20:57.670Z,21.60
2018-05-25T02:21:29.695Z,21.60
2018-05-25T02:22:01.736Z,21.60
2018-05-25T02:22:34.559Z,21.60
2018-05-25T02:23:06.575Z,21.60
2018-05-25T02:23:38.594Z,21.60
2018-05-25T02:24:10.609Z,21.60
2018-05-25T02:24:42.653Z,21.60
2018-05-25T02:25:14.667Z,21.60
2018-05-25T02:25:46.703Z,21.60
2018-05-25T02:26:18.714Z,21.50
2018-05-25T02:26:50.765Z,21.50
2018-05-25T02:27:22.786Z,21.50
2018-05-25T02:27:54.834Z,21.60
2018-05-25T02:28:26.876Z,21.60
2018-05-25T02:28:58.906Z,21.60
2018-05-25T02:29:31.686Z,21.60
2018-05-25T02:30:03.734Z,21.60
2018-05-25T02:30:36.547Z,21.60
2018-05-25T02:31:08.625Z,21.60
2018-05-25T02:31:40.650Z,21.60
2018-05-25T02:32:12.683Z,21.60
2018-05-25T02:32:44.710Z,21.60
2018-05-25T02:33:17.503Z,21.60
2018-05-25T02:33:49.539Z,21.60
2018-05-25T02:34:21.591Z,21.60
2018-05-25T02:34:53.623Z,21.60
2018-05-25T02:35:26.418Z,21.60
2018-05-25T02:35:58.447Z,21.60
2018-05-25T02:36:31.252Z,21.60
2018-05-25T02:37:03.323Z,21.60
2018-05-25T02:37:35.360Z,21.60
2018-05-25T02:38:07.520Z,21.60
2018-05-25T02:38:39.585Z,21.60
2018-05-25T02:39:11.611Z,21.60
2018-05-25T02:39:43.657Z,21.60
2018-05-25T02:40:15.691Z,21.60
2018-05-25T02:40:47.715Z,21.60
2018-05-25T02:41:19.755Z,21.60
2018-05-25T02:41:51.786Z,21.60
2018-05-25T02:42:23.803Z,21.60
2018-05-25T02:42:55.847Z,21.60
2018-05-25T02:43:28.644Z,21.60
2018-05-25T02:44:00.670Z,21.60
2018-05-25T02:44:33.449Z,21.60
2018-05-25T02:45:05.475Z,21.60
2018-05-25T02:45:38.276Z,21.60
2018-05-25T02:46:10.311Z,21.60
2018-05-25T02:46:42.370Z,21.60
2018-05-25T02:47:14.426Z,21.60
2018-05-25T02:47:46.488Z,21.60
2018-05-25T02:48:18.530Z,21.60
2018-05-25T02:48:50.551Z,21.60
2018-05-25T02:49:23.351Z,21.60
2018-05-25T02:49:55.410Z,21.60
2018-05-25T02:50:27.433Z,21.60
2018-05-25T02:51:00.236Z,21.60
2018-05-25T02:51:32.275Z,21.60
2018-05-25T02:52:04.302Z,21.60
2018-05-25T02:52:37.086Z,21.60
2018-05-25T02:53:09.143Z,21.60
2018-05-25T02:53:41.182Z,21.60
2018-05-25T02:54:13.223Z,21.60
2018-05-25T02:54:46.009Z,21.60
2018-05-25T02:55:18.034Z,21.60
2018-05-25T02:55:50.836Z,21.60
2018-05-25T02:56:22.865Z,21.60
2018-05-25T02:56:55.647Z,21.60
2018-05-25T02:57:27.674Z,21.60
2018-05-25T02:58:00.471Z,21.60
2018-05-25T02:58:33.299Z,21.60
2018-05-25T02:59:05.306Z,21.60
2018-05-25T02:59:37.400Z,21.60
2018-05-25T03:00:09.411Z,21.60
2018-05-25T03:00:41.429Z,21.60
2018-05-25T03:01:14.216Z,21.60
2018-05-25T03:01:46.254Z,21.50
2018-05-25T03:02:18.280Z,21.60
2018-05-25T03:02:50.333Z,21.60
2018-05-25T03:03:22.347Z,21.60
2018-05-25T03:03:54.381Z,21.50
2018-05-25T03:04:26.421Z,21.60
2018-05-25T03:04:59.185Z,21.60
2018-05-25T03:05:31.226Z,21.60
2018-05-25T03:06:04.017Z,21.60
2018-05-25T03:06:36.038Z,21.60
2018-05-25T03:07:08.823Z,21.60
2018-05-25T03:07:40.872Z,21.60
2018-05-25T03:08:13.643Z,21.60
2018-05-25T03:08:45.667Z,21.60
2018-05-25T03:09:18.471Z,21.60
2018-05-25T03:09:50.491Z,21.50
2018-05-25T03:10:23.298Z,21.60
2018-05-25T03:10:55.328Z,21.60
2018-05-25T03:11:28.018Z,21.60
2018-05-25T03:12:00.066Z,21.60
2018-05-25T03:12:32.097Z,21.50
2018-05-25T03:13:04.138Z,21.50
2018-05-25T03:13:36.953Z,21.50
2018-05-25T03:14:08.971Z,21.50
2018-05-25T03:14:41.006Z,21.50
2018-05-25T03:15:13.797Z,21.50
2018-05-25T03:15:45.824Z,21.50
2018-05-25T03:16:18.643Z,21.50
2018-05-25T03:16:50.676Z,21.50
2018-05-25T03:17:22.708Z,21.50
2018-05-25T03:17:55.509Z,21.50
2018-05-25T03:18:27.532Z,21.50
2018-05-25T03:18:59.587Z,21.50
2018-05-25T03:19:31.629Z,21.50
2018-05-25T03:20:04.415Z,21.50
2018-05-25T03:20:36.471Z,21.50
2018-05-25T03:21:08.550Z,21.50
2018-05-25T03:21:40.592Z,21.50
2018-05-25T03:22:12.620Z,21.50
2018-05-25T03:22:44.644Z,21.50
2018-05-25T03:23:17.425Z,21.50
2018-05-25T03:23:50.215Z,21.50
2018-05-25T03:24:22.269Z,21.50
2018-05-25T03:24:54.584Z,21.50
2018-05-25T03:25:26.751Z,21.50
2018-05-25T03:25:59.559Z,21.50
2018-05-25T03:26:31.605Z,21.50
2018-05-25T03:27:03.649Z,21.50
2018-05-25T03:27:35.670Z,21.50
2018-05-25T03:28:08.457Z,21.50
2018-05-25T03:28:40.499Z,21.50
2018-05-25T03:29:14.018Z,21.40
2018-05-25T03:29:46.053Z,21.40
2018-05-25T03:30:18.091Z,21.50
2018-05-25T03:30:50.885Z,21.50
2018-05-25T03:31:22.930Z,21.40
2018-05-25T03:31:54.957Z,21.40
2018-05-25T03:32:27.751Z,21.50
2018-05-25T03:32:59.776Z,21.50
2018-05-25T03:33:32.580Z,21.40
2018-05-25T03:34:04.600Z,21.50
2018-05-25T03:34:37.445Z,21.50
2018-05-25T03:35:09.489Z,21.50
2018-05-25T03:35:41.561Z,21.50
2018-05-25T03:36:13.573Z,21.50
2018-05-25T03:36:45.627Z,21.50
2018-05-25T03:37:17.638Z,21.50
2018-05-25T03:37:49.668Z,21.50
2018-05-25T03:38:22.450Z,21.40
2018-05-25T03:38:55.256Z,21.40
2018-05-25T03:39:27.282Z,21.40
2018-05-25T03:39:59.302Z,21.40
2018-05-25T03:40:32.124Z,21.40
2018-05-25T03:41:04.139Z,21.40
2018-05-25T03:41:36.936Z,21.40
2018-05-25T03:42:08.954Z,21.40
2018-05-25T03:42:41.743Z,21.40
2018-05-25T03:43:13.777Z,21.40
2018-05-25T03:43:46.587Z,21.40
2018-05-25T03:44:18.629Z,21.50
2018-05-25T03:44:50.650Z,21.50
2018-05-25T03:45:23.447Z,21.50
2018-05-25T03:45:55.483Z,21.50
2018-05-25T03:46:27.552Z,21.40
2018-05-25T03:46:59.577Z,21.50
2018-05-25T03:47:32.369Z,21.50
2018-05-25T03:48:04.397Z,21.50
2018-05-25T03:48:37.189Z,21.50
2018-05-25T03:49:09.203Z,21.50
2018-05-25T03:49:42.006Z,21.50
2018-05-25T03:50:14.071Z,21.50
2018-05-25T03:50:46.092Z,21.50
2018-05-25T03:51:18.122Z,21.50
2018-05-25T03:51:50.945Z,21.40
2018-05-25T03:52:23.012Z,21.40
2018-05-25T03:52:54.996Z,21.40
2018-05-25T03:53:27.804Z,21.40
2018-05-25T03:53:59.858Z,21.40
2018-05-25T03:54:31.923Z,21.40
2018-05-25T03:55:03.944Z,21.30
2018-05-25T03:55:36.757Z,21.40
2018-05-25T03:56:08.782Z,21.30
2018-05-25T03:56:40.798Z,21.40
2018-05-25T03:57:13.585Z,21.40
2018-05-25T03:57:45.617Z,21.30
2018-05-25T03:58:18.396Z,21.30
2018-05-25T03:58:50.456Z,21.40
2018-05-25T03:59:22.477Z,21.40
2018-05-25T03:59:55.287Z,21.40
2018-05-25T04:00:27.303Z,21.40
2018-05-25T04:01:00.104Z,21.50
2018-05-25T04:01:32.165Z,21.40
2018-05-25T04:02:04.203Z,21.40
2018-05-25T04:02:36.268Z,21.50
2018-05-25T04:03:08.300Z,21.50
2018-05-25T04:03:41.077Z,21.50
2018-05-25T04:04:13.178Z,21.50
2018-05-25T04:04:45.177Z,21.50
2018-05-25T04:05:17.202Z,21.50
2018-05-25T04:05:50.088Z,21.40
2018-05-25T04:06:22.876Z,21.40
2018-05-25T04:06:54.899Z,21.40
2018-05-25T04:07:27.687Z,21.50
2018-05-25T04:07:59.717Z,21.50
2018-05-25T04:08:32.507Z,21.40
2018-05-25T04:09:05.036Z,21.40
2018-05-25T04:09:37.254Z,21.50
2018-05-25T04:10:09.321Z,21.50
2018-05-25T04:10:41.359Z,21.60
2018-05-25T04:11:13.381Z,21.60
2018-05-25T04:11:45.418Z,21.60
2018-05-25T04:12:18.227Z,21.60
2018-05-25T04:12:50.242Z,21.60
2018-05-25T04:13:22.274Z,21.60
2018-05-25T04:13:55.065Z,21.60
2018-05-25T04:14:27.098Z,21.50
2018-05-25T04:14:59.899Z,21.50
2018-05-25T04:15:31.930Z,21.50
2018-05-25T04:16:04.721Z,21.50
2018-05-25T04:16:36.735Z,21.40
2018-05-25T04:17:09.582Z,21.40
2018-05-25T04:17:41.646Z,21.40
2018-05-25T04:18:13.667Z,21.40
2018-05-25T04:18:45.743Z,21.40
2018-05-25T04:19:17.743Z,21.30
2018-05-25T04:19:49.781Z,21.40
2018-05-25T04:20:21.801Z,21.30
2018-05-25T04:20:53.832Z,21.40
2018-05-25T04:21:25.847Z,21.30
2018-05-25T04:21:57.914Z,21.40
2018-05-25T04:22:29.933Z,21.40
2018-05-25T04:23:02.711Z,21.40
2018-05-25T04:23:34.750Z,21.30
2018-05-25T04:24:07.559Z,21.30
2018-05-25T04:24:39.606Z,21.30
2018-05-25T04:25:11.615Z,21.30
2018-05-25T04:25:44.412Z,21.40
2018-05-25T04:26:16.465Z,21.30
2018-05-25T04:26:48.483Z,21.30
2018-05-25T04:27:21.323Z,21.40
2018-05-25T04:27:53.321Z,21.30
2018-05-25T04:28:25.347Z,21.30
2018-05-25T04:28:58.143Z,21.30
2018-05-25T04:29:30.178Z,21.30
2018-05-25T04:30:02.981Z,21.40
2018-05-25T04:30:35.004Z,21.30
2018-05-25T04:31:07.038Z,21.30
2018-05-25T04:31:39.056Z,21.30
2018-05-25T04:32:11.119Z,21.30
2018-05-25T04:32:43.138Z,21.40
2018-05-25T04:33:15.167Z,21.40
2018-05-25T04:33:47.956Z,21.50
2018-05-25T04:34:19.979Z,21.50
2018-05-25T04:34:52.842Z,21.50
2018-05-25T04:35:24.839Z,21.50
2018-05-25T04:35:56.871Z,21.50
2018-05-25T04:36:28.892Z,21.50
2018-05-25T04:37:01.686Z,21.40
2018-05-25T04:37:33.709Z,21.50
2018-05-25T04:38:06.499Z,21.50
2018-05-25T04:38:38.520Z,21.40
2018-05-25T04:39:10.546Z,21.40
2018-05-25T04:39:42.585Z,21.40
2018-05-25T04:40:14.594Z,21.40
2018-05-25T04:40:46.711Z,21.30
2018-05-25T04:41:18.751Z,21.40
2018-05-25T04:41:50.840Z,21.30
2018-05-25T04:42:23.705Z,21.30
2018-05-25T04:42:55.747Z,21.30
2018-05-25T04:43:27.774Z,21.30
2018-05-25T04:43:59.802Z,21.30
2018-05-25T04:44:31.814Z,21.30
2018-05-25T04:45:04.639Z,21.30
2018-05-25T04:45:36.670Z,21.30
2018-05-25T04:46:09.638Z,21.30
2018-05-25T04:46:41.679Z,21.30
2018-05-25T04:47:13.756Z,21.40
2018-05-25T04:47:45.784Z,21.40
2018-05-25T04:48:17.828Z,21.30
2018-05-25T04:48:49.856Z,21.30
2018-05-25T04:49:21.872Z,21.30
2018-05-25T04:49:53.901Z,21.30
2018-05-25T04:50:25.957Z,21.30
2018-05-25T04:50:57.980Z,21.30
2018-05-25T04:51:30.772Z,21.30
2018-05-25T04:52:02.801Z,21.30
2018-05-25T04:52:35.607Z,21.30
2018-05-25T04:53:07.663Z,21.30
2018-05-25T04:53:39.680Z,21.40
2018-05-25T04:54:11.715Z,21.40
2018-05-25T04:54:44.513Z,21.40
2018-05-25T04:55:16.536Z,21.40
2018-05-25T04:55:49.354Z,21.40
2018-05-25T04:56:21.396Z,21.40
2018-05-25T04:56:53.419Z,21.40
2018-05-25T04:57:26.212Z,21.40
2018-05-25T04:57:58.239Z,21.40
2018-05-25T04:58:30.324Z,21.40
2018-05-25T04:59:02.367Z,21.40
2018-05-25T04:59:34.395Z,21.40
2018-05-25T05:00:07.186Z,21.40
2018-05-25T05:00:39.231Z,21.40
2018-05-25T05:01:11.246Z,21.50
2018-05-25T05:01:44.042Z,21.50
2018-05-25T05:02:16.083Z,21.50
2018-05-25T05:02:48.884Z,21.50
2018-05-25T05:03:20.907Z,21.50
2018-05-25T05:03:53.706Z,21.50
2018-05-25T05:04:25.715Z,21.50
2018-05-25T05:04:58.644Z,21.50
2018-05-25T05:05:30.591Z,21.50
2018-05-25T05:06:02.628Z,21.50
2018-05-25T05:06:34.694Z,21.50
2018-05-25T05:07:06.719Z,21.40
2018-05-25T05:07:38.760Z,21.50
2018-05-25T05:08:10.792Z,21.50
2018-05-25T05:08:43.612Z,21.50
2018-05-25T05:09:15.635Z,21.50
2018-05-25T05:09:47.671Z,21.50
2018-05-25T05:10:20.462Z,21.50
2018-05-25T05:10:52.492Z,21.50
2018-05-25T05:11:25.269Z,21.50
2018-05-25T05:11:57.298Z,21.50
2018-05-25T05:12:30.120Z,21.40
2018-05-25T05:13:02.146Z,21.40
2018-05-25T05:13:34.171Z,21.40
2018-05-25T05:14:06.960Z,21.40
2018-05-25T05:14:38.992Z,21.40
2018-05-25T05:15:11.789Z,21.40
2018-05-25T05:15:43.823Z,21.40
2018-05-25T05:16:15.877Z,21.40
2018-05-25T05:16:47.918Z,21.40
2018-05-25T05:17:20.703Z,21.40
2018-05-25T05:17:52.845Z,21.40
2018-05-25T05:18:25.643Z,21.40
2018-05-25T05:18:57.659Z,21.40
2018-05-25T05:19:30.458Z,21.50
2018-05-25T05:20:02.488Z,21.50
2018-05-25T05:20:35.276Z,21.40
2018-05-25T05:21:08.064Z,21.40
2018-05-25T05:21:40.081Z,21.40
2018-05-25T05:22:12.875Z,21.40
2018-05-25T05:22:44.905Z,21.40
2018-05-25T05:23:17.695Z,21.40
2018-05-25T05:23:49.739Z,21.40
2018-05-25T05:24:21.767Z,21.40
2018-05-25T05:24:54.557Z,21.50
2018-05-25T05:25:26.594Z,21.40
2018-05-25T05:25:58.631Z,21.50
2018-05-25T05:26:31.429Z,21.50
2018-05-25T05:27:03.462Z,21.50
2018-05-25T05:27:35.535Z,21.50
2018-05-25T05:28:07.556Z,21.40
2018-05-25T05:28:40.363Z,21.50
2018-05-25T05:29:12.375Z,21.40
2018-05-25T05:29:45.182Z,21.50
2018-05-25T05:30:17.247Z,21.50
2018-05-25T05:30:49.272Z,21.50
2018-05-25T05:31:21.359Z,21.50
2018-05-25T05:31:53.379Z,21.50
2018-05-25T05:32:25.420Z,21.50
2018-05-25T05:32:58.207Z,21.50
2018-05-25T05:33:30.216Z,21.50
2018-05-25T05:34:03.028Z,21.50
2018-05-25T05:34:35.067Z,21.50
2018-05-25T05:35:07.107Z,21.50
2018-05-25T05:35:39.147Z,21.50
2018-05-25T05:36:11.946Z,21.50
2018-05-25T05:36:43.969Z,21.50
2018-05-25T05:37:16.767Z,21.50
2018-05-25T05:37:48.791Z,21.50
2018-05-25T05:38:21.607Z,21.50
2018-05-25T05:38:53.606Z,21.50
2018-05-25T05:39:26.411Z,21.50
2018-05-25T05:39:58.499Z,21.50
2018-05-25T05:40:30.556Z,21.50
2018-05-25T05:41:02.553Z,21.40
2018-05-25T05:41:34.587Z,21.50
2018-05-25T05:42:06.637Z,21.50
2018-05-25T05:42:39.485Z,21.50
2018-05-25T05:43:11.518Z,21.50
2018-05-25T05:43:43.548Z,21.50
2018-05-25T05:44:15.618Z,21.50
2018-05-25T05:44:47.672Z,21.50
2018-05-25T05:45:19.674Z,21.50
2018-05-25T05:45:51.694Z,21.50
2018-05-25T05:46:23.717Z,21.50
2018-05-25T05:46:55.752Z,21.60
2018-05-25T05:47:27.784Z,21.50
2018-05-25T05:47:59.897Z,21.50
2018-05-25T05:48:31.871Z,21.50
2018-05-25T05:49:04.685Z,21.60
2018-05-25T05:49:36.708Z,21.60
2018-05-25T05:50:08.727Z,21.60
2018-05-25T05:50:41.535Z,21.60
2018-05-25T05:51:13.565Z,21.60
2018-05-25T05:51:46.361Z,21.60
2018-05-25T05:52:18.382Z,21.60
2018-05-25T05:52:51.189Z,21.60
2018-05-25T05:53:23.222Z,21.60
2018-05-25T05:53:55.280Z,21.60
2018-05-25T05:54:27.309Z,21.60
2018-05-25T05:55:00.094Z,21.60
2018-05-25T05:55:32.140Z,21.60
2018-05-25T05:56:04.174Z,21.60
2018-05-25T05:56:36.967Z,21.60
2018-05-25T05:57:09.008Z,21.60
2018-05-25T05:57:41.793Z,21.60
2018-05-25T05:58:13.833Z,21.60
2018-05-25T05:58:45.863Z,21.70
2018-05-25T05:59:18.659Z,21.60
2018-05-25T05:59:50.688Z,21.60
2018-05-25T06:00:23.471Z,21.60
2018-05-25T06:00:55.550Z,21.60
2018-05-25T06:01:28.303Z,21.60
2018-05-25T06:02:00.338Z,21.60
2018-05-25T06:02:32.362Z,21.60
2018-05-25T06:03:04.435Z,21.70
2018-05-25T06:03:37.240Z,21.60
2018-05-25T06:04:09.259Z,21.60
2018-05-25T06:04:41.315Z,21.70
2018-05-25T06:05:13.346Z,21.70
2018-05-25T06:05:46.146Z,21.70
2018-05-25T06:06:18.170Z,21.70
2018-05-25T06:06:50.954Z,21.60
2018-05-25T06:07:23.014Z,21.60
2018-05-25T06:07:55.031Z,21.60
2018-05-25T06:08:27.824Z,21.60
2018-05-25T06:08:59.870Z,21.60
2018-05-25T06:09:32.652Z,21.70
2018-05-25T06:10:04.669Z,21.70
2018-05-25T06:10:37.465Z,21.60
2018-05-25T06:11:09.507Z,21.70
2018-05-25T06:11:42.310Z,21.60
2018-05-25T06:12:14.354Z,21.60
2018-05-25T06:12:46.446Z,21.60
2018-05-25T06:13:18.516Z,21.70
2018-05-25T06:13:50.531Z,21.70
2018-05-25T06:14:22.558Z,21.70
2018-05-25T06:14:54.580Z,21.70
2018-05-25T06:15:27.378Z,21.70
2018-05-25T06:15:59.393Z,21.70
2018-05-25T06:16:32.180Z,21.70
2018-05-25T06:17:04.204Z,21.70
2018-05-25T06:17:37.018Z,21.70
2018-05-25T06:18:09.046Z,21.70
2018-05-25T06:18:41.074Z,21.80
2018-05-25T06:19:13.101Z,21.80
2018-05-25T06:19:45.122Z,21.70
2018-05-25T06:20:17.139Z,21.70
2018-05-25T06:20:49.939Z,21.70
2018-05-25T06:21:21.955Z,21.70
2018-05-25T06:21:54.763Z,21.80
2018-05-25T06:22:26.790Z,21.70
2018-05-25T06:22:58.823Z,21.80
2018-05-25T06:23:30.848Z,21.80
2018-05-25T06:24:02.871Z,21.80
2018-05-25T06:24:34.900Z,21.80
2018-05-25T06:25:07.693Z,21.80
2018-05-25T06:25:39.707Z,21.80
2018-05-25T06:26:12.511Z,21.80
2018-05-25T06:26:44.531Z,21.80
2018-05-25T06:27:17.334Z,21.80
2018-05-25T06:27:49.369Z,21.80
2018-05-25T06:28:21.482Z,21.80
2018-05-25T06:28:53.510Z,21.80
2018-05-25T06:29:25.598Z,21.80
2018-05-25T06:29:57.580Z,21.80
2018-05-25T06:30:29.596Z,21.80
2018-05-25T06:31:02.392Z,21.90
2018-05-25T06:31:34.463Z,21.80
2018-05-25T06:32:06.500Z,21.90
2018-05-25T06:32:38.547Z,21.80
2018-05-25T06:33:10.559Z,21.90
2018-05-25T06:33:42.596Z,21.90
2018-05-25T06:34:14.618Z,21.90
2018-05-25T06:34:46.715Z,21.90
2018-05-25T06:35:18.728Z,21.90
2018-05-25T06:35:50.740Z,21.90
2018-05-25T06:36:23.578Z,21.90
2018-05-25T06:36:55.583Z,21.90
2018-05-25T06:37:27.612Z,21.90
2018-05-25T06:37:59.662Z,21.90
2018-05-25T06:38:32.475Z,22.00
2018-05-25T06:39:04.528Z,21.90
2018-05-25T06:39:36.549Z,21.90
2018-05-25T06:40:08.578Z,21.90
2018-05-25T06:40:41.394Z,22.00
2018-05-25T06:41:13.423Z,21.90
2018-05-25T06:41:45.465Z,22.00
2018-05-25T06:42:18.259Z,22.00
2018-05-25T06:42:50.290Z,22.00
2018-05-25T06:43:22.321Z,22.00
2018-05-25T06:43:55.134Z,21.90
2018-05-25T06:44:27.208Z,21.90
2018-05-25T06:44:59.235Z,22.00
2018-05-25T06:45:31.261Z,22.00
2018-05-25T06:46:03.295Z,22.00
2018-05-25T06:46:36.126Z,22.00
2018-05-25T06:47:08.148Z,22.00
2018-05-25T06:47:40.189Z,22.00
2018-05-25T06:48:12.222Z,22.00
2018-05-25T06:48:45.019Z,22.00
2018-05-25T06:49:17.060Z,22.00
2018-05-25T06:49:49.100Z,22.00
2018-05-25T06:50:21.896Z,22.00
2018-05-25T06:50:53.984Z,22.00
2018-05-25T06:51:26.010Z,22.00
2018-05-25T06:51:58.015Z,22.00
2018-05-25T06:52:30.807Z,22.00
2018-05-25T06:53:02.841Z,22.00
2018-05-25T06:53:34.858Z,22.00
2018-05-25T06:54:06.923Z,22.00
2018-05-25T06:54:38.927Z,22.00
2018-05-25T06:55:10.968Z,22.00